sensor_id;sensor_type;location;lat;lon;timestamp;pressure;altitude;pressure_sealevel;temperature;humidity
58973;BME280;44750;52.040;7.472;2022-12-29T00:02:44;99659.25;;;10.14;0.00
58973;BME280;44750;52.040;7.472;2022-12-29T00:07:44;99647.41;;;10.15;0.00
58973;BME280;44750;52.040;7.472;2022-12-29T00:12:44;99635.91;;;10.21;0.00
58973;BME280;44750;52.040;7.472;2022-12-29T00:17:45;99630.31;;;10.23;0.00
58973;BME280;44750;52.040;7.472;2022-12-29T00:22:46;99607.16;;;10.20;0.00
58973;BME280;44750;52.040;7.472;2022-12-29T00:27:46;99625.88;;;10.30;0.00
58973;BME280;44750;52.040;7.472;2022-12-29T00:32:46;99592.34;;;10.39;0.00
58973;BME280;44750;52.040;7.472;2022-12-29T00:37:47;99589.28;;;10.42;0.00
58973;BME280;44750;52.040;7.472;2022-12-29T00:42:47;99557.38;;;10.37;0.00
58973;BME280;44750;52.040;7.472;2022-12-29T00:47:48;99534.53;;;10.40;0.00
58973;BME280;44750;52.040;7.472;2022-12-29T00:52:48;99513.56;;;10.34;0.00
58973;BME280;44750;52.040;7.472;2022-12-29T00:57:48;99529.13;;;10.40;0.00
58973;BME280;44750;52.040;7.472;2022-12-29T01:02:48;99505.09;;;10.45;0.00
58973;BME280;44750;52.040;7.472;2022-12-29T01:07:48;99488.00;;;10.45;0.00
58973;BME280;44750;52.040;7.472;2022-12-29T01:12:49;99490.16;;;10.49;0.00
58973;BME280;44750;52.040;7.472;2022-12-29T01:17:49;99465.41;;;10.37;0.00
58973;BME280;44750;52.040;7.472;2022-12-29T01:22:49;99470.81;;;10.37;0.00
58973;BME280;44750;52.040;7.472;2022-12-29T01:27:49;99467.28;;;10.37;0.00
58973;BME280;44750;52.040;7.472;2022-12-29T01:32:49;99505.09;;;10.45;0.00
58973;BME280;44750;52.040;7.472;2022-12-29T01:37:50;99520.09;;;10.48;0.00
58973;BME280;44750;52.040;7.472;2022-12-29T01:42:50;99520.44;;;10.45;0.00
58973;BME280;44750;52.040;7.472;2022-12-29T01:47:57;99530.75;;;10.49;0.00
58973;BME280;44750;52.040;7.472;2022-12-29T01:53:03;99550.31;;;10.51;0.00
58973;BME280;44750;52.040;7.472;2022-12-29T01:58:06;99562.53;;;10.47;0.00
58973;BME280;44750;52.040;7.472;2022-12-29T02:03:06;99568.75;;;10.56;0.00
58973;BME280;44750;52.040;7.472;2022-12-29T02:08:09;99576.75;;;10.49;0.00
58973;BME280;44750;52.040;7.472;2022-12-29T02:13:11;99586.00;;;10.55;0.00
58973;BME280;44750;52.040;7.472;2022-12-29T02:29:26;99587.81;;;10.63;0.00
58973;BME280;44750;52.040;7.472;2022-12-29T02:35:06;99568.47;;;10.66;0.00
58973;BME280;44750;52.040;7.472;2022-12-29T02:40:31;99586.03;;;10.70;0.00
58973;BME280;44750;52.040;7.472;2022-12-29T02:45:54;99573.56;;;10.69;0.00
58973;BME280;44750;52.040;7.472;2022-12-29T02:51:18;99567.88;;;10.79;0.00
58973;BME280;44750;52.040;7.472;2022-12-29T02:56:20;99538.94;;;10.79;0.00
58973;BME280;44750;52.040;7.472;2022-12-29T03:07:02;99493.50;;;10.90;0.00
58973;BME280;44750;52.040;7.472;2022-12-29T03:12:24;99458.41;;;10.96;0.00
58973;BME280;44750;52.040;7.472;2022-12-29T03:17:39;99409.66;;;10.96;0.00
58973;BME280;44750;52.040;7.472;2022-12-29T03:22:42;99376.03;;;11.06;0.00
58973;BME280;44750;52.040;7.472;2022-12-29T03:27:47;99319.16;;;11.06;0.00
58973;BME280;44750;52.040;7.472;2022-12-29T03:32:52;99296.56;;;11.13;0.00
58973;BME280;44750;52.040;7.472;2022-12-29T03:38:06;99231.56;;;11.13;0.00
58973;BME280;44750;52.040;7.472;2022-12-29T03:43:09;99178.09;;;11.22;0.00
58973;BME280;44750;52.040;7.472;2022-12-29T03:48:10;99119.59;;;11.28;0.00
58973;BME280;44750;52.040;7.472;2022-12-29T03:53:10;99056.84;;;11.24;0.00
58973;BME280;44750;52.040;7.472;2022-12-29T03:58:11;99018.56;;;11.34;0.00
58973;BME280;44750;52.040;7.472;2022-12-29T04:03:11;98954.59;;;11.33;0.00
58973;BME280;44750;52.040;7.472;2022-12-29T04:08:11;98924.16;;;11.31;0.00
58973;BME280;44750;52.040;7.472;2022-12-29T04:13:11;98890.84;;;11.30;0.49
58973;BME280;44750;52.040;7.472;2022-12-29T04:18:12;98863.78;;;11.37;2.17
58973;BME280;44750;52.040;7.472;2022-12-29T04:23:12;98838.53;;;11.30;4.39
58973;BME280;44750;52.040;7.472;2022-12-29T04:28:14;98803.94;;;11.25;5.90
58973;BME280;44750;52.040;7.472;2022-12-29T04:33:14;98781.81;;;11.15;6.46
58973;BME280;44750;52.040;7.472;2022-12-29T04:38:15;98776.63;;;11.13;5.91
58973;BME280;44750;52.040;7.472;2022-12-29T04:43:16;98771.97;;;11.00;5.61
58973;BME280;44750;52.040;7.472;2022-12-29T04:48:16;98777.56;;;10.85;4.35
58973;BME280;44750;52.040;7.472;2022-12-29T04:53:17;98764.78;;;10.66;1.05
58973;BME280;44750;52.040;7.472;2022-12-29T04:58:19;98792.00;;;10.58;0.00
58973;BME280;44750;52.040;7.472;2022-12-29T05:03:20;98813.41;;;10.52;0.00
58973;BME280;44750;52.040;7.472;2022-12-29T05:08:20;98838.94;;;10.43;0.00
58973;BME280;44750;52.040;7.472;2022-12-29T05:13:21;98834.84;;;10.26;0.00
58973;BME280;44750;52.040;7.472;2022-12-29T05:18:21;98845.16;;;10.15;0.00
58973;BME280;44750;52.040;7.472;2022-12-29T05:23:21;98848.22;;;10.06;0.00
58973;BME280;44750;52.040;7.472;2022-12-29T05:28:21;98891.03;;;10.02;0.00
58973;BME280;44750;52.040;7.472;2022-12-29T05:33:22;98945.34;;;10.07;0.00
58973;BME280;44750;52.040;7.472;2022-12-29T05:38:22;98953.25;;;10.09;0.00
58973;BME280;44750;52.040;7.472;2022-12-29T05:43:22;98958.41;;;10.03;0.00
58973;BME280;44750;52.040;7.472;2022-12-29T05:48:22;98982.94;;;10.02;0.00
58973;BME280;44750;52.040;7.472;2022-12-29T05:53:23;98969.53;;;9.94;0.00
58973;BME280;44750;52.040;7.472;2022-12-29T05:58:23;98991.63;;;9.97;0.00
58973;BME280;44750;52.040;7.472;2022-12-29T06:03:23;98994.78;;;10.01;0.00
58973;BME280;44750;52.040;7.472;2022-12-29T06:08:24;98976.44;;;9.96;0.00
58973;BME280;44750;52.040;7.472;2022-12-29T06:13:24;98956.41;;;9.91;0.00
58973;BME280;44750;52.040;7.472;2022-12-29T06:18:24;98944.75;;;9.90;0.00
58973;BME280;44750;52.040;7.472;2022-12-29T06:23:24;98921.66;;;9.87;0.00
58973;BME280;44750;52.040;7.472;2022-12-29T06:28:24;98911.88;;;9.86;0.00
58973;BME280;44750;52.040;7.472;2022-12-29T06:33:25;98910.59;;;9.82;0.00
58973;BME280;44750;52.040;7.472;2022-12-29T06:38:25;98886.44;;;9.81;0.00
58973;BME280;44750;52.040;7.472;2022-12-29T06:43:25;98902.38;;;9.91;0.00
58973;BME280;44750;52.040;7.472;2022-12-29T06:48:25;98884.88;;;9.86;0.00
58973;BME280;44750;52.040;7.472;2022-12-29T06:53:25;98861.09;;;9.82;0.00
58973;BME280;44750;52.040;7.472;2022-12-29T06:58:26;98862.44;;;9.93;2.88
58973;BME280;44750;52.040;7.472;2022-12-29T07:03:26;98840.41;;;9.89;5.54
58973;BME280;44750;52.040;7.472;2022-12-29T07:08:29;98810.03;;;9.87;9.51
58973;BME280;44750;52.040;7.472;2022-12-29T07:13:29;98802.75;;;9.87;12.63
58973;BME280;44750;52.040;7.472;2022-12-29T07:18:29;98767.13;;;9.77;16.29
58973;BME280;44750;52.040;7.472;2022-12-29T07:23:30;98760.06;;;9.76;20.64
58973;BME280;44750;52.040;7.472;2022-12-29T07:28:30;98758.44;;;9.82;23.99
58973;BME280;44750;52.040;7.472;2022-12-29T07:33:32;98737.25;;;9.85;27.96
58973;BME280;44750;52.040;7.472;2022-12-29T07:38:32;98730.81;;;9.86;30.56
58973;BME280;44750;52.040;7.472;2022-12-29T07:43:33;98732.47;;;9.87;31.46
58973;BME280;44750;52.040;7.472;2022-12-29T07:48:33;98712.03;;;9.78;33.38
58973;BME280;44750;52.040;7.472;2022-12-29T07:53:33;98709.41;;;9.85;34.79
58973;BME280;44750;52.040;7.472;2022-12-29T07:58:34;98697.50;;;9.79;36.93
58973;BME280;44750;52.040;7.472;2022-12-29T08:03:34;98676.53;;;9.81;40.01
58973;BME280;44750;52.040;7.472;2022-12-29T08:08:34;98684.66;;;9.81;43.13
58973;BME280;44750;52.040;7.472;2022-12-29T08:13:34;98673.84;;;9.81;45.42
58973;BME280;44750;52.040;7.472;2022-12-29T08:18:34;98653.84;;;9.76;46.35
58973;BME280;44750;52.040;7.472;2022-12-29T08:23:35;98661.16;;;9.82;46.43
58973;BME280;44750;52.040;7.472;2022-12-29T08:28:35;98697.84;;;9.98;45.42
58973;BME280;44750;52.040;7.472;2022-12-29T08:33:35;98695.00;;;10.13;46.29
58973;BME280;44750;52.040;7.472;2022-12-29T08:38:35;98696.16;;;10.32;47.59
58973;BME280;44750;52.040;7.472;2022-12-29T08:43:35;98687.06;;;10.40;50.63
58973;BME280;44750;52.040;7.472;2022-12-29T08:48:36;98673.94;;;10.43;54.47
58973;BME280;44750;52.040;7.472;2022-12-29T08:53:36;98658.19;;;10.53;60.19
58973;BME280;44750;52.040;7.472;2022-12-29T08:58:37;98627.81;;;10.71;65.75
58973;BME280;44750;52.040;7.472;2022-12-29T09:03:37;98599.53;;;10.74;73.03
58973;BME280;44750;52.040;7.472;2022-12-29T09:08:37;98543.34;;;10.69;83.73
58973;BME280;44750;52.040;7.472;2022-12-29T09:13:37;98523.34;;;10.77;91.48
58973;BME280;44750;52.040;7.472;2022-12-29T09:18:38;98492.75;;;10.77;98.58
58973;BME280;44750;52.040;7.472;2022-12-29T09:23:38;98457.19;;;10.60;100.00
58973;BME280;44750;52.040;7.472;2022-12-29T09:28:39;98432.63;;;10.54;100.00
58973;BME280;44750;52.040;7.472;2022-12-29T09:33:39;98450.09;;;10.65;100.00
58973;BME280;44750;52.040;7.472;2022-12-29T09:38:40;98446.94;;;10.75;100.00
58973;BME280;44750;52.040;7.472;2022-12-29T09:49:39;98397.19;;;10.83;100.00
58973;BME280;44750;52.040;7.472;2022-12-29T09:54:53;98368.06;;;10.85;100.00
58973;BME280;44750;52.040;7.472;2022-12-29T10:00:04;98343.47;;;10.86;100.00
58973;BME280;44750;52.040;7.472;2022-12-29T10:10:55;98335.31;;;11.00;100.00
58973;BME280;44750;52.040;7.472;2022-12-29T10:16:04;98366.72;;;11.14;100.00
58973;BME280;44750;52.040;7.472;2022-12-29T10:26:33;98331.66;;;11.19;100.00
58973;BME280;44750;52.040;7.472;2022-12-29T10:31:44;98334.63;;;11.11;100.00
58973;BME280;44750;52.040;7.472;2022-12-29T10:36:48;98346.25;;;11.25;100.00
58973;BME280;44750;52.040;7.472;2022-12-29T10:41:59;98347.50;;;11.23;100.00
58973;BME280;44750;52.040;7.472;2022-12-29T10:47:09;98383.56;;;11.16;100.00
58973;BME280;44750;52.040;7.472;2022-12-29T10:52:13;98377.47;;;11.28;100.00
58973;BME280;44750;52.040;7.472;2022-12-29T11:03:36;98361.63;;;11.25;100.00
58973;BME280;44750;52.040;7.472;2022-12-29T11:08:12;98340.09;;;10.98;100.00
58973;BME280;44750;52.040;7.472;2022-12-29T11:18:32;98369.75;;;11.25;100.00
58973;BME280;44750;52.040;7.472;2022-12-29T11:23:39;98366.22;;;11.31;100.00
58973;BME280;44750;52.040;7.472;2022-12-29T11:28:44;98381.22;;;11.27;100.00
58973;BME280;44750;52.040;7.472;2022-12-29T11:33:45;98408.78;;;11.17;100.00
58973;BME280;44750;52.040;7.472;2022-12-29T11:38:48;98468.75;;;11.07;100.00
58973;BME280;44750;52.040;7.472;2022-12-29T11:43:50;98535.00;;;10.78;100.00
58973;BME280;44750;52.040;7.472;2022-12-29T11:48:51;98633.84;;;10.60;100.00
58973;BME280;44750;52.040;7.472;2022-12-29T11:53:56;98678.81;;;10.61;100.00
58973;BME280;44750;52.040;7.472;2022-12-29T11:58:57;98671.94;;;10.59;100.00
58973;BME280;44750;52.040;7.472;2022-12-29T12:09:02;98658.00;;;10.68;100.00
58973;BME280;44750;52.040;7.472;2022-12-29T12:14:14;98617.00;;;10.71;100.00
58973;BME280;44750;52.040;7.472;2022-12-29T12:24:39;98581.22;;;10.76;100.00
58973;BME280;44750;52.040;7.472;2022-12-29T12:30:04;98547.50;;;10.85;100.00
58973;BME280;44750;52.040;7.472;2022-12-29T12:35:05;98548.13;;;10.81;100.00
58973;BME280;44750;52.040;7.472;2022-12-29T12:56:07;98582.91;;;11.11;100.00
58973;BME280;44750;52.040;7.472;2022-12-29T13:17:07;98552.28;;;11.24;100.00
58973;BME280;44750;52.040;7.472;2022-12-29T13:22:40;98524.97;;;11.32;100.00
58973;BME280;44750;52.040;7.472;2022-12-29T13:33:24;98499.97;;;11.23;100.00
58973;BME280;44750;52.040;7.472;2022-12-29T13:38:43;98503.31;;;11.32;100.00
58973;BME280;44750;52.040;7.472;2022-12-29T13:43:46;98465.84;;;11.09;100.00
58973;BME280;44750;52.040;7.472;2022-12-29T13:49:01;98438.41;;;10.92;100.00
58973;BME280;44750;52.040;7.472;2022-12-29T13:54:44;98491.50;;;10.86;100.00
58973;BME280;44750;52.040;7.472;2022-12-29T13:59:58;98524.41;;;10.76;100.00
58973;BME280;44750;52.040;7.472;2022-12-29T14:05:03;98532.94;;;10.66;100.00
58973;BME280;44750;52.040;7.472;2022-12-29T14:10:05;98603.28;;;10.73;100.00
58973;BME280;44750;52.040;7.472;2022-12-29T14:20:22;98632.00;;;10.74;100.00
58973;BME280;44750;52.040;7.472;2022-12-29T14:30:59;98645.72;;;10.66;100.00
58973;BME280;44750;52.040;7.472;2022-12-29T14:36:19;98685.69;;;10.64;100.00
58973;BME280;44750;52.040;7.472;2022-12-29T14:41:29;98729.00;;;10.70;100.00
58973;BME280;44750;52.040;7.472;2022-12-29T14:46:44;98701.50;;;10.67;100.00
58973;BME280;44750;52.040;7.472;2022-12-29T14:51:46;98679.41;;;10.57;100.00
58973;BME280;44750;52.040;7.472;2022-12-29T14:56:48;98693.81;;;10.64;100.00
58973;BME280;44750;52.040;7.472;2022-12-29T15:01:52;98701.50;;;10.67;100.00
58973;BME280;44750;52.040;7.472;2022-12-29T15:06:53;98655.72;;;10.59;100.00
58973;BME280;44750;52.040;7.472;2022-12-29T15:17:27;98625.09;;;10.58;100.00
58973;BME280;44750;52.040;7.472;2022-12-29T15:22:30;98689.84;;;10.25;100.00
58973;BME280;44750;52.040;7.472;2022-12-29T15:27:30;98870.81;;;9.98;100.00
58973;BME280;44750;52.040;7.472;2022-12-29T15:32:40;98972.84;;;9.74;100.00
58973;BME280;44750;52.040;7.472;2022-12-29T15:37:42;99026.56;;;9.47;100.00
58973;BME280;44750;52.040;7.472;2022-12-29T15:43:14;99077.16;;;9.39;97.83
58973;BME280;44750;52.040;7.472;2022-12-29T15:48:19;99107.66;;;9.24;91.22
58973;BME280;44750;52.040;7.472;2022-12-29T15:53:30;99125.78;;;9.15;83.79
58973;BME280;44750;52.040;7.472;2022-12-29T15:58:40;99158.97;;;9.01;75.14
58973;BME280;44750;52.040;7.472;2022-12-29T16:03:40;99168.75;;;9.02;67.09
58973;BME280;44750;52.040;7.472;2022-12-29T16:08:41;99212.44;;;9.06;61.68
58973;BME280;44750;52.040;7.472;2022-12-29T16:13:41;99228.03;;;9.18;58.04
58973;BME280;44750;52.040;7.472;2022-12-29T16:18:41;99209.19;;;9.10;56.75
58973;BME280;44750;52.040;7.472;2022-12-29T16:23:43;99212.72;;;9.11;55.87
58973;BME280;44750;52.040;7.472;2022-12-29T16:28:48;99228.75;;;9.12;55.62
58973;BME280;44750;52.040;7.472;2022-12-29T16:33:52;99241.13;;;9.07;54.55
58973;BME280;44750;52.040;7.472;2022-12-29T16:39:19;99241.44;;;9.03;53.58
58973;BME280;44750;52.040;7.472;2022-12-29T16:44:22;99237.25;;;9.01;53.31
58973;BME280;44750;52.040;7.472;2022-12-29T16:49:22;99221.25;;;8.99;53.32
58973;BME280;44750;52.040;7.472;2022-12-29T16:54:35;99233.53;;;9.02;53.30
58973;BME280;44750;52.040;7.472;2022-12-29T16:59:38;99244.00;;;9.05;54.13
58973;BME280;44750;52.040;7.472;2022-12-29T17:04:39;99222.75;;;9.02;54.80
58973;BME280;44750;52.040;7.472;2022-12-29T17:09:40;99228.00;;;8.95;56.34
58973;BME280;44750;52.040;7.472;2022-12-29T17:14:47;99235.91;;;9.05;56.60
58973;BME280;44750;52.040;7.472;2022-12-29T17:19:51;99245.19;;;9.02;58.93
58973;BME280;44750;52.040;7.472;2022-12-29T17:24:57;99231.84;;;9.01;61.85
58973;BME280;44750;52.040;7.472;2022-12-29T17:30:05;99216.88;;;8.98;64.42
58973;BME280;44750;52.040;7.472;2022-12-29T17:35:14;99208.59;;;9.00;67.08
58973;BME280;44750;52.040;7.472;2022-12-29T17:40:17;99188.59;;;8.86;70.93
58973;BME280;44750;52.040;7.472;2022-12-29T17:45:27;99187.84;;;9.00;73.92
58973;BME280;44750;52.040;7.472;2022-12-29T17:50:29;99149.16;;;8.85;77.63
58973;BME280;44750;52.040;7.472;2022-12-29T17:55:30;99162.88;;;8.75;78.91
58973;BME280;44750;52.040;7.472;2022-12-29T18:00:30;99168.34;;;8.67;80.10
58973;BME280;44750;52.040;7.472;2022-12-29T18:05:31;99194.00;;;8.63;80.11
58973;BME280;44750;52.040;7.472;2022-12-29T18:10:31;99220.28;;;8.69;78.49
58973;BME280;44750;52.040;7.472;2022-12-29T18:15:34;99208.56;;;8.53;77.70
58973;BME280;44750;52.040;7.472;2022-12-29T18:20:35;99229.63;;;8.50;76.23
58973;BME280;44750;52.040;7.472;2022-12-29T18:25:41;99246.16;;;8.47;74.31
58973;BME280;44750;52.040;7.472;2022-12-29T18:30:43;99257.16;;;8.37;73.05
58973;BME280;44750;52.040;7.472;2022-12-29T18:35:55;99259.53;;;8.32;72.41
58973;BME280;44750;52.040;7.472;2022-12-29T18:40:57;99261.91;;;8.27;73.20
58973;BME280;44750;52.040;7.472;2022-12-29T18:45:57;99260.22;;;8.26;74.45
58973;BME280;44750;52.040;7.472;2022-12-29T18:50:57;99262.56;;;8.20;75.83
58973;BME280;44750;52.040;7.472;2022-12-29T18:55:57;99250.66;;;8.15;78.01
58973;BME280;44750;52.040;7.472;2022-12-29T19:00:58;99238.06;;;7.99;80.21
58973;BME280;44750;52.040;7.472;2022-12-29T19:06:00;99238.22;;;7.97;81.33
58973;BME280;44750;52.040;7.472;2022-12-29T19:11:01;99236.88;;;8.01;82.92
58973;BME280;44750;52.040;7.472;2022-12-29T19:16:01;99213.84;;;7.91;84.16
58973;BME280;44750;52.040;7.472;2022-12-29T19:21:02;99213.34;;;7.87;86.57
58973;BME280;44750;52.040;7.472;2022-12-29T19:26:02;99205.75;;;7.91;87.75
58973;BME280;44750;52.040;7.472;2022-12-29T19:31:02;99222.91;;;7.90;89.24
58973;BME280;44750;52.040;7.472;2022-12-29T19:36:03;99219.06;;;7.84;90.44
58973;BME280;44750;52.040;7.472;2022-12-29T19:41:05;99214.38;;;7.78;91.46
58973;BME280;44750;52.040;7.472;2022-12-29T19:46:12;99227.19;;;7.76;91.38
58973;BME280;44750;52.040;7.472;2022-12-29T19:51:14;99237.44;;;7.72;90.49
58973;BME280;44750;52.040;7.472;2022-12-29T19:56:15;99281.88;;;7.84;89.07
58973;BME280;44750;52.040;7.472;2022-12-29T20:01:18;99307.63;;;7.87;87.86
58973;BME280;44750;52.040;7.472;2022-12-29T20:06:19;99313.19;;;7.85;87.06
58973;BME280;44750;52.040;7.472;2022-12-29T20:11:20;99329.34;;;7.85;85.85
58973;BME280;44750;52.040;7.472;2022-12-29T20:16:20;99333.22;;;7.83;85.53
58973;BME280;44750;52.040;7.472;2022-12-29T20:21:23;99329.38;;;7.77;85.65
58973;BME280;44750;52.040;7.472;2022-12-29T20:26:27;99349.56;;;7.81;84.76
58973;BME280;44750;52.040;7.472;2022-12-29T20:31:30;99363.22;;;7.80;84.09
58973;BME280;44750;52.040;7.472;2022-12-29T20:36:33;99354.44;;;7.78;83.43
58973;BME280;44750;52.040;7.472;2022-12-29T20:41:34;99375.81;;;7.79;82.75
58973;BME280;44750;52.040;7.472;2022-12-29T20:46:34;99373.63;;;7.66;82.57
58973;BME280;44750;52.040;7.472;2022-12-29T20:51:35;99403.59;;;7.72;81.63
58973;BME280;44750;52.040;7.472;2022-12-29T20:56:35;99397.38;;;7.71;80.32
58973;BME280;44750;52.040;7.472;2022-12-29T21:01:36;99423.66;;;7.77;79.44
58973;BME280;44750;52.040;7.472;2022-12-29T21:06:36;99431.72;;;7.77;79.50
58973;BME280;44750;52.040;7.472;2022-12-29T21:11:36;99422.31;;;7.73;79.66
58973;BME280;44750;52.040;7.472;2022-12-29T21:16:37;99431.56;;;7.70;79.72
58973;BME280;44750;52.040;7.472;2022-12-29T21:21:37;99423.94;;;7.66;79.93
58973;BME280;44750;52.040;7.472;2022-12-29T21:26:37;99435.41;;;7.68;80.38
58973;BME280;44750;52.040;7.472;2022-12-29T21:31:37;99449.22;;;7.73;79.92
58973;BME280;44750;52.040;7.472;2022-12-29T21:36:38;99435.41;;;7.68;80.96
58973;BME280;44750;52.040;7.472;2022-12-29T21:41:38;99439.78;;;7.69;81.61
58973;BME280;44750;52.040;7.472;2022-12-29T21:46:39;99453.28;;;7.77;81.51
58973;BME280;44750;52.040;7.472;2022-12-29T21:51:40;99439.47;;;7.80;82.70
58973;BME280;44750;52.040;7.472;2022-12-29T21:56:40;99422.78;;;7.68;84.49
58973;BME280;44750;52.040;7.472;2022-12-29T22:01:40;99419.25;;;7.76;85.30
58973;BME280;44750;52.040;7.472;2022-12-29T22:06:41;99410.19;;;7.77;85.99
58973;BME280;44750;52.040;7.472;2022-12-29T22:11:41;99404.78;;;7.77;87.47
58973;BME280;44750;52.040;7.472;2022-12-29T22:16:41;99400.41;;;7.76;88.90
58973;BME280;44750;52.040;7.472;2022-12-29T22:21:41;99409.16;;;7.78;90.14
58973;BME280;44750;52.040;7.472;2022-12-29T22:26:42;99417.41;;;7.77;90.30
58973;BME280;44750;52.040;7.472;2022-12-29T22:31:42;99389.47;;;7.69;90.75
58973;BME280;44750;52.040;7.472;2022-12-29T22:36:42;99395.31;;;7.65;91.51
58973;BME280;44750;52.040;7.472;2022-12-29T22:41:42;99400.56;;;7.66;91.74
58973;BME280;44750;52.040;7.472;2022-12-29T22:46:42;99401.75;;;7.64;92.45
58973;BME280;44750;52.040;7.472;2022-12-29T22:51:45;99409.47;;;7.59;92.04
58973;BME280;44750;52.040;7.472;2022-12-29T22:56:46;99407.78;;;7.58;92.78
58973;BME280;44750;52.040;7.472;2022-12-29T23:01:46;99416.03;;;7.56;92.64
58973;BME280;44750;52.040;7.472;2022-12-29T23:06:46;99404.09;;;7.50;93.02
58973;BME280;44750;52.040;7.472;2022-12-29T23:11:47;99408.09;;;7.46;92.83
58973;BME280;44750;52.040;7.472;2022-12-29T23:16:47;99435.88;;;7.55;92.81
58973;BME280;44750;52.040;7.472;2022-12-29T23:21:48;99417.38;;;7.44;92.89
58973;BME280;44750;52.040;7.472;2022-12-29T23:26:48;99438.91;;;7.44;92.20
58973;BME280;44750;52.040;7.472;2022-12-29T23:31:48;99450.50;;;7.44;92.02
58973;BME280;44750;52.040;7.472;2022-12-29T23:36:48;99466.66;;;7.44;91.77
58973;BME280;44750;52.040;7.472;2022-12-29T23:41:49;99477.63;;;7.51;91.50
58973;BME280;44750;52.040;7.472;2022-12-29T23:46:49;99456.88;;;7.35;92.28
58973;BME280;44750;52.040;7.472;2022-12-29T23:51:50;99466.94;;;7.33;92.96
58973;BME280;44750;52.040;7.472;2022-12-29T23:56:50;99442.88;;;7.23;93.48
